Log in

Login to your account

Username *
Password *
Remember Me
User Registration
User Profile
(optional)
Cancel

Nous contacter

 Téléphone : +33 (0)4 79 54 41 81

Coordonnées détaillées et accès : cliquez ici

 
LFLB °C
    Ferienhaus Ostsee
[source: ADDS]
METAR
LFLB 091100Z AUTO VRB03KT CAVOK 31/14 Q1017 TEMPO FEW100TCU =
TAF LFLB 090500Z 0906/1006 36005KT CAVOK TEMPO 0906/0910 VRB02KT PROB30 TEMPO 0910/0917 FEW100TCU
TAF
TAF LFLB 090500Z 0906/1006 36005KT CAVOK TEMPO 0906/0910 VRB02KT PROB30 TEMPO 0910/0917 FEW100TCU =
SR / SS: 04:30 / 18:53 UTC (Lever/Coucher du soleil le 2020-08-09)
JSN Boot template designed by JoomlaShine.com